sensor_id;sensor_type;location;lat;lon;timestamp;temperature;humidity
435;DHT22;204;48.942;9.256;2023-02-14T00:01:30;0.90;1.00
435;DHT22;204;48.942;9.256;2023-02-14T00:03:55;0.90;1.00
435;DHT22;204;48.942;9.256;2023-02-14T00:06:25;0.90;1.00
435;DHT22;204;48.942;9.256;2023-02-14T00:08:50;0.90;1.00
435;DHT22;204;48.942;9.256;2023-02-14T00:11:19;0.90;1.00
435;DHT22;204;48.942;9.256;2023-02-14T00:13:45;0.80;1.00
435;DHT22;204;48.942;9.256;2023-02-14T00:16:29;0.80;1.00
435;DHT22;204;48.942;9.256;2023-02-14T00:18:55;0.80;1.00
435;DHT22;204;48.942;9.256;2023-02-14T00:21:34;0.80;1.00
435;DHT22;204;48.942;9.256;2023-02-14T00:24:01;0.80;1.00
435;DHT22;204;48.942;9.256;2023-02-14T00:26:27;0.80;1.00
435;DHT22;204;48.942;9.256;2023-02-14T00:28:53;0.80;1.00
435;DHT22;204;48.942;9.256;2023-02-14T00:31:18;0.80;1.00
435;DHT22;204;48.942;9.256;2023-02-14T00:33:44;0.80;1.00
435;DHT22;204;48.942;9.256;2023-02-14T00:36:11;0.80;1.00
435;DHT22;204;48.942;9.256;2023-02-14T00:38:36;0.80;1.00
435;DHT22;204;48.942;9.256;2023-02-14T00:41:02;0.80;1.00
435;DHT22;204;48.942;9.256;2023-02-14T00:43:29;0.80;1.00
435;DHT22;204;48.942;9.256;2023-02-14T00:45:55;0.80;1.00
435;DHT22;204;48.942;9.256;2023-02-14T00:48:20;0.80;1.00
435;DHT22;204;48.942;9.256;2023-02-14T00:50:46;0.80;1.00
435;DHT22;204;48.942;9.256;2023-02-14T00:53:11;0.80;1.00
435;DHT22;204;48.942;9.256;2023-02-14T00:55:37;0.70;1.00
435;DHT22;204;48.942;9.256;2023-02-14T00:58:03;0.80;1.00
435;DHT22;204;48.942;9.256;2023-02-14T01:00:29;0.70;1.00
435;DHT22;204;48.942;9.256;2023-02-14T01:02:54;0.70;1.00
435;DHT22;204;48.942;9.256;2023-02-14T01:05:20;0.70;1.00
435;DHT22;204;48.942;9.256;2023-02-14T01:07:46;0.70;1.00
435;DHT22;204;48.942;9.256;2023-02-14T01:10:11;0.70;1.00
435;DHT22;204;48.942;9.256;2023-02-14T01:12:37;0.70;1.00
435;DHT22;204;48.942;9.256;2023-02-14T01:15:02;0.70;1.00
435;DHT22;204;48.942;9.256;2023-02-14T01:17:30;0.70;1.00
435;DHT22;204;48.942;9.256;2023-02-14T01:19:56;0.70;1.00
435;DHT22;204;48.942;9.256;2023-02-14T01:22:21;0.70;1.00
435;DHT22;204;48.942;9.256;2023-02-14T01:24:47;0.70;1.00
435;DHT22;204;48.942;9.256;2023-02-14T01:27:12;0.70;1.00
435;DHT22;204;48.942;9.256;2023-02-14T01:29:38;0.70;1.00
435;DHT22;204;48.942;9.256;2023-02-14T01:32:04;0.70;1.00
435;DHT22;204;48.942;9.256;2023-02-14T01:34:29;0.70;1.00
435;DHT22;204;48.942;9.256;2023-02-14T01:36:55;0.70;1.00
435;DHT22;204;48.942;9.256;2023-02-14T01:39:21;0.70;1.00
435;DHT22;204;48.942;9.256;2023-02-14T01:41:47;0.60;1.00
435;DHT22;204;48.942;9.256;2023-02-14T01:46:44;0.60;1.00
435;DHT22;204;48.942;9.256;2023-02-14T01:49:23;0.60;1.00
435;DHT22;204;48.942;9.256;2023-02-14T01:52:00;0.60;1.00
435;DHT22;204;48.942;9.256;2023-02-14T01:54:28;0.60;1.00
435;DHT22;204;48.942;9.256;2023-02-14T01:56:59;0.50;1.00
435;DHT22;204;48.942;9.256;2023-02-14T01:59:31;0.50;1.00
435;DHT22;204;48.942;9.256;2023-02-14T02:01:58;0.50;1.00
435;DHT22;204;48.942;9.256;2023-02-14T02:04:34;0.50;1.00
435;DHT22;204;48.942;9.256;2023-02-14T02:07:05;0.50;1.00
435;DHT22;204;48.942;9.256;2023-02-14T02:09:53;0.40;1.00
435;DHT22;204;48.942;9.256;2023-02-14T02:12:20;0.40;1.00
435;DHT22;204;48.942;9.256;2023-02-14T02:14:47;0.30;1.00
435;DHT22;204;48.942;9.256;2023-02-14T02:46:46;-0.10;1.00
435;DHT22;204;48.942;9.256;2023-02-14T02:49:35;-0.10;1.00
435;DHT22;204;48.942;9.256;2023-02-14T02:55:55;-0.20;1.00
435;DHT22;204;48.942;9.256;2023-02-14T03:01:14;-0.30;1.00
435;DHT22;204;48.942;9.256;2023-02-14T03:03:45;-0.30;1.00
435;DHT22;204;48.942;9.256;2023-02-14T03:06:31;-0.30;1.00
435;DHT22;204;48.942;9.256;2023-02-14T03:08:57;-0.30;1.00
435;DHT22;204;48.942;9.256;2023-02-14T03:11:23;-0.30;1.00
435;DHT22;204;48.942;9.256;2023-02-14T03:14:18;-0.30;1.00
435;DHT22;204;48.942;9.256;2023-02-14T03:17:21;-0.30;1.00
435;DHT22;204;48.942;9.256;2023-02-14T03:19:58;-0.40;1.00
435;DHT22;204;48.942;9.256;2023-02-14T03:25:41;-0.40;1.00
435;DHT22;204;48.942;9.256;2023-02-14T03:28:40;-0.40;1.00
435;DHT22;204;48.942;9.256;2023-02-14T03:31:33;-0.40;1.00
435;DHT22;204;48.942;9.256;2023-02-14T03:34:09;-0.40;1.00
435;DHT22;204;48.942;9.256;2023-02-14T03:36:49;-0.40;1.00
435;DHT22;204;48.942;9.256;2023-02-14T03:39:21;-0.50;1.00
435;DHT22;204;48.942;9.256;2023-02-14T03:42:01;-0.50;1.00
435;DHT22;204;48.942;9.256;2023-02-14T03:44:31;-0.50;1.00
435;DHT22;204;48.942;9.256;2023-02-14T03:47:01;-0.50;1.00
435;DHT22;204;48.942;9.256;2023-02-14T03:49:32;-0.50;1.00
435;DHT22;204;48.942;9.256;2023-02-14T03:52:01;-0.50;1.00
435;DHT22;204;48.942;9.256;2023-02-14T03:54:27;-0.50;1.00
435;DHT22;204;48.942;9.256;2023-02-14T03:57:14;-0.50;1.00
435;DHT22;204;48.942;9.256;2023-02-14T03:59:43;-0.50;1.00
435;DHT22;204;48.942;9.256;2023-02-14T04:02:20;-0.50;1.00
435;DHT22;204;48.942;9.256;2023-02-14T04:04:48;-0.60;1.00
435;DHT22;204;48.942;9.256;2023-02-14T04:07:17;-0.60;1.00
435;DHT22;204;48.942;9.256;2023-02-14T04:09:43;-0.60;1.00
435;DHT22;204;48.942;9.256;2023-02-14T04:12:09;-0.70;1.00
435;DHT22;204;48.942;9.256;2023-02-14T04:14:35;-0.70;1.00
435;DHT22;204;48.942;9.256;2023-02-14T04:17:01;-0.70;1.00
435;DHT22;204;48.942;9.256;2023-02-14T04:19:45;-0.70;1.00
435;DHT22;204;48.942;9.256;2023-02-14T04:22:11;-0.70;1.00
435;DHT22;204;48.942;9.256;2023-02-14T04:24:37;-0.70;1.00
435;DHT22;204;48.942;9.256;2023-02-14T04:27:03;-0.70;1.00
435;DHT22;204;48.942;9.256;2023-02-14T04:29:46;-0.80;1.00
435;DHT22;204;48.942;9.256;2023-02-14T04:32:14;-0.80;1.00
435;DHT22;204;48.942;9.256;2023-02-14T04:34:40;-0.80;1.00
435;DHT22;204;48.942;9.256;2023-02-14T04:37:06;-0.80;1.00
435;DHT22;204;48.942;9.256;2023-02-14T04:39:32;-0.80;1.00
435;DHT22;204;48.942;9.256;2023-02-14T04:41:58;-0.90;1.00
435;DHT22;204;48.942;9.256;2023-02-14T04:44:23;-0.90;1.00
435;DHT22;204;48.942;9.256;2023-02-14T04:46:49;-0.90;1.00
435;DHT22;204;48.942;9.256;2023-02-14T04:49:15;-0.90;1.00
435;DHT22;204;48.942;9.256;2023-02-14T04:51:41;-0.90;1.00
435;DHT22;204;48.942;9.256;2023-02-14T04:54:07;-0.90;1.00
435;DHT22;204;48.942;9.256;2023-02-14T04:56:33;-0.90;1.00
435;DHT22;204;48.942;9.256;2023-02-14T04:58:58;-0.90;1.00
435;DHT22;204;48.942;9.256;2023-02-14T05:01:24;-0.90;1.00
435;DHT22;204;48.942;9.256;2023-02-14T05:03:49;-0.90;1.00
435;DHT22;204;48.942;9.256;2023-02-14T05:06:15;-0.90;1.00
435;DHT22;204;48.942;9.256;2023-02-14T05:08:40;-1.00;1.00
435;DHT22;204;48.942;9.256;2023-02-14T05:11:06;-1.00;1.00
435;DHT22;204;48.942;9.256;2023-02-14T05:13:32;-1.00;1.00
435;DHT22;204;48.942;9.256;2023-02-14T05:15:58;-1.00;1.00
435;DHT22;204;48.942;9.256;2023-02-14T05:18:24;-1.00;1.00
435;DHT22;204;48.942;9.256;2023-02-14T05:20:50;-1.10;1.00
435;DHT22;204;48.942;9.256;2023-02-14T05:23:16;-1.10;1.00
435;DHT22;204;48.942;9.256;2023-02-14T05:25:42;-1.10;1.00
435;DHT22;204;48.942;9.256;2023-02-14T05:28:08;-1.10;1.00
435;DHT22;204;48.942;9.256;2023-02-14T05:30:34;-1.10;1.00
435;DHT22;204;48.942;9.256;2023-02-14T05:33:00;-1.10;1.00
435;DHT22;204;48.942;9.256;2023-02-14T05:35:26;-1.10;1.00
435;DHT22;204;48.942;9.256;2023-02-14T05:37:52;-1.10;1.00
435;DHT22;204;48.942;9.256;2023-02-14T05:40:17;-1.10;1.00
435;DHT22;204;48.942;9.256;2023-02-14T05:42:43;-1.10;1.00
435;DHT22;204;48.942;9.256;2023-02-14T05:45:10;-1.10;1.00
435;DHT22;204;48.942;9.256;2023-02-14T05:47:36;-1.10;1.00
435;DHT22;204;48.942;9.256;2023-02-14T05:50:02;-1.10;1.00
435;DHT22;204;48.942;9.256;2023-02-14T05:52:28;-1.10;1.00
435;DHT22;204;48.942;9.256;2023-02-14T05:54:54;-1.10;1.00
435;DHT22;204;48.942;9.256;2023-02-14T05:57:19;-1.10;1.00
435;DHT22;204;48.942;9.256;2023-02-14T05:59:45;-1.10;1.00
435;DHT22;204;48.942;9.256;2023-02-14T06:02:10;-1.10;1.00
435;DHT22;204;48.942;9.256;2023-02-14T06:04:36;-1.10;1.00
435;DHT22;204;48.942;9.256;2023-02-14T06:07:02;-1.20;1.00
435;DHT22;204;48.942;9.256;2023-02-14T06:09:27;-1.20;1.00
435;DHT22;204;48.942;9.256;2023-02-14T06:11:53;-1.20;1.00
435;DHT22;204;48.942;9.256;2023-02-14T06:14:18;-1.20;1.00
435;DHT22;204;48.942;9.256;2023-02-14T06:16:44;-1.20;1.00
435;DHT22;204;48.942;9.256;2023-02-14T06:19:10;-1.20;1.00
435;DHT22;204;48.942;9.256;2023-02-14T06:21:35;-1.30;1.00
435;DHT22;204;48.942;9.256;2023-02-14T06:24:01;-1.20;1.00
435;DHT22;204;48.942;9.256;2023-02-14T06:26:27;-1.20;1.00
435;DHT22;204;48.942;9.256;2023-02-14T06:28:54;-1.30;1.00
435;DHT22;204;48.942;9.256;2023-02-14T06:31:20;-1.30;1.00
435;DHT22;204;48.942;9.256;2023-02-14T06:33:45;-1.30;1.00
435;DHT22;204;48.942;9.256;2023-02-14T06:36:11;-1.30;1.00
435;DHT22;204;48.942;9.256;2023-02-14T06:38:37;-1.30;1.00
435;DHT22;204;48.942;9.256;2023-02-14T06:41:07;-1.30;1.00
435;DHT22;204;48.942;9.256;2023-02-14T06:43:34;-1.30;1.00
435;DHT22;204;48.942;9.256;2023-02-14T06:46:00;-1.30;1.00
435;DHT22;204;48.942;9.256;2023-02-14T06:48:26;-1.20;1.00
435;DHT22;204;48.942;9.256;2023-02-14T06:50:51;-1.20;1.00
435;DHT22;204;48.942;9.256;2023-02-14T06:53:18;-1.20;1.00
435;DHT22;204;48.942;9.256;2023-02-14T06:55:43;-1.20;1.00
435;DHT22;204;48.942;9.256;2023-02-14T06:58:09;-1.10;1.00
435;DHT22;204;48.942;9.256;2023-02-14T07:00:35;-1.00;1.00
435;DHT22;204;48.942;9.256;2023-02-14T07:03:00;-1.00;1.00
435;DHT22;204;48.942;9.256;2023-02-14T07:05:26;-1.00;1.00
435;DHT22;204;48.942;9.256;2023-02-14T07:07:51;-1.00;1.00
435;DHT22;204;48.942;9.256;2023-02-14T07:10:17;-0.90;1.00
435;DHT22;204;48.942;9.256;2023-02-14T07:12:43;-0.90;1.00
435;DHT22;204;48.942;9.256;2023-02-14T07:15:10;-0.80;1.00
435;DHT22;204;48.942;9.256;2023-02-14T07:17:36;-0.70;1.00
435;DHT22;204;48.942;9.256;2023-02-14T07:20:03;-0.70;1.00
435;DHT22;204;48.942;9.256;2023-02-14T07:22:29;-0.60;1.00
435;DHT22;204;48.942;9.256;2023-02-14T07:24:54;-0.50;1.00
435;DHT22;204;48.942;9.256;2023-02-14T07:27:20;-0.50;1.00
435;DHT22;204;48.942;9.256;2023-02-14T07:29:45;-0.40;1.00
435;DHT22;204;48.942;9.256;2023-02-14T07:32:11;-0.40;1.00
435;DHT22;204;48.942;9.256;2023-02-14T07:34:36;-0.30;1.00
435;DHT22;204;48.942;9.256;2023-02-14T07:37:02;-0.30;1.00
435;DHT22;204;48.942;9.256;2023-02-14T07:39:27;-0.20;1.00
435;DHT22;204;48.942;9.256;2023-02-14T07:41:53;-0.10;1.00
435;DHT22;204;48.942;9.256;2023-02-14T07:44:19;0.00;1.00
435;DHT22;204;48.942;9.256;2023-02-14T07:46:44;0.10;1.00
435;DHT22;204;48.942;9.256;2023-02-14T07:49:10;0.20;1.00
435;DHT22;204;48.942;9.256;2023-02-14T07:51:36;0.30;1.00
435;DHT22;204;48.942;9.256;2023-02-14T07:54:02;0.40;1.00
435;DHT22;204;48.942;9.256;2023-02-14T07:56:27;0.40;1.00
435;DHT22;204;48.942;9.256;2023-02-14T07:58:53;0.50;1.00
435;DHT22;204;48.942;9.256;2023-02-14T08:01:19;0.60;1.00
435;DHT22;204;48.942;9.256;2023-02-14T08:03:45;0.60;1.00
435;DHT22;204;48.942;9.256;2023-02-14T08:06:15;0.70;1.00
435;DHT22;204;48.942;9.256;2023-02-14T08:08:40;0.80;1.00
435;DHT22;204;48.942;9.256;2023-02-14T08:11:06;0.90;1.00
435;DHT22;204;48.942;9.256;2023-02-14T08:13:32;1.00;1.00
435;DHT22;204;48.942;9.256;2023-02-14T08:15:57;1.10;1.00
435;DHT22;204;48.942;9.256;2023-02-14T08:18:30;1.20;1.00
435;DHT22;204;48.942;9.256;2023-02-14T08:20:56;1.30;1.00
435;DHT22;204;48.942;9.256;2023-02-14T08:23:22;1.30;1.00
435;DHT22;204;48.942;9.256;2023-02-14T08:25:48;1.40;1.00
435;DHT22;204;48.942;9.256;2023-02-14T08:28:15;1.50;1.00
435;DHT22;204;48.942;9.256;2023-02-14T08:30:42;1.60;1.00
435;DHT22;204;48.942;9.256;2023-02-14T08:33:07;1.70;1.00
435;DHT22;204;48.942;9.256;2023-02-14T08:35:33;1.80;1.00
435;DHT22;204;48.942;9.256;2023-02-14T08:37:59;1.90;1.00
435;DHT22;204;48.942;9.256;2023-02-14T08:40:25;2.00;1.00
435;DHT22;204;48.942;9.256;2023-02-14T08:42:50;2.10;1.00
435;DHT22;204;48.942;9.256;2023-02-14T08:45:16;2.20;1.00
435;DHT22;204;48.942;9.256;2023-02-14T08:47:42;2.30;1.00
435;DHT22;204;48.942;9.256;2023-02-14T08:50:11;2.40;1.00
435;DHT22;204;48.942;9.256;2023-02-14T08:52:39;2.40;1.00
435;DHT22;204;48.942;9.256;2023-02-14T08:55:06;2.50;1.00
435;DHT22;204;48.942;9.256;2023-02-14T08:57:31;2.60;1.00
435;DHT22;204;48.942;9.256;2023-02-14T08:59:57;2.60;1.00
435;DHT22;204;48.942;9.256;2023-02-14T09:02:23;2.80;1.00
435;DHT22;204;48.942;9.256;2023-02-14T09:04:48;2.80;1.00
435;DHT22;204;48.942;9.256;2023-02-14T09:07:14;2.90;1.00
435;DHT22;204;48.942;9.256;2023-02-14T09:09:40;3.00;1.00
435;DHT22;204;48.942;9.256;2023-02-14T09:12:07;3.00;1.00
435;DHT22;204;48.942;9.256;2023-02-14T09:14:38;3.10;1.00
435;DHT22;204;48.942;9.256;2023-02-14T09:17:05;3.20;1.00
435;DHT22;204;48.942;9.256;2023-02-14T09:19:34;3.30;1.00
435;DHT22;204;48.942;9.256;2023-02-14T09:22:01;3.40;1.00
435;DHT22;204;48.942;9.256;2023-02-14T09:24:29;3.50;1.00
435;DHT22;204;48.942;9.256;2023-02-14T09:26:55;3.70;1.00
435;DHT22;204;48.942;9.256;2023-02-14T09:29:23;3.80;1.00
435;DHT22;204;48.942;9.256;2023-02-14T09:31:54;3.90;1.00
435;DHT22;204;48.942;9.256;2023-02-14T09:34:20;4.00;1.00
435;DHT22;204;48.942;9.256;2023-02-14T09:36:46;4.10;1.00
435;DHT22;204;48.942;9.256;2023-02-14T09:39:12;4.20;1.00
435;DHT22;204;48.942;9.256;2023-02-14T09:44:31;4.40;1.00
435;DHT22;204;48.942;9.256;2023-02-14T09:47:21;4.40;1.00
435;DHT22;204;48.942;9.256;2023-02-14T09:49:48;4.60;1.00
435;DHT22;204;48.942;9.256;2023-02-14T09:52:17;4.70;1.00
435;DHT22;204;48.942;9.256;2023-02-14T09:54:50;4.80;1.00
435;DHT22;204;48.942;9.256;2023-02-14T09:57:33;4.80;1.00
435;DHT22;204;48.942;9.256;2023-02-14T10:00:36;4.90;1.00
435;DHT22;204;48.942;9.256;2023-02-14T10:06:00;5.00;1.00
435;DHT22;204;48.942;9.256;2023-02-14T10:08:52;5.00;1.00
435;DHT22;204;48.942;9.256;2023-02-14T10:11:21;5.20;1.00
435;DHT22;204;48.942;9.256;2023-02-14T10:14:16;5.30;1.00
435;DHT22;204;48.942;9.256;2023-02-14T10:16:49;5.40;1.00
435;DHT22;204;48.942;9.256;2023-02-14T10:27:34;5.60;1.00
435;DHT22;204;48.942;9.256;2023-02-14T10:30:01;5.70;1.00
435;DHT22;204;48.942;9.256;2023-02-14T10:32:39;5.80;1.00
435;DHT22;204;48.942;9.256;2023-02-14T10:38:46;6.00;1.00
435;DHT22;204;48.942;9.256;2023-02-14T10:43:38;6.20;1.00
435;DHT22;204;48.942;9.256;2023-02-14T10:49:21;6.30;1.00
435;DHT22;204;48.942;9.256;2023-02-14T10:54:38;6.50;1.00
435;DHT22;204;48.942;9.256;2023-02-14T10:57:16;6.70;1.00
435;DHT22;204;48.942;9.256;2023-02-14T11:02:21;6.80;1.00
435;DHT22;204;48.942;9.256;2023-02-14T11:04:48;6.90;1.00
435;DHT22;204;48.942;9.256;2023-02-14T11:07:19;6.80;1.00
435;DHT22;204;48.942;9.256;2023-02-14T11:09:46;6.90;1.00
435;DHT22;204;48.942;9.256;2023-02-14T11:12:12;7.00;1.00
435;DHT22;204;48.942;9.256;2023-02-14T11:15:17;7.20;1.00
435;DHT22;204;48.942;9.256;2023-02-14T11:17:44;7.30;1.00
435;DHT22;204;48.942;9.256;2023-02-14T11:20:23;7.30;1.00
435;DHT22;204;48.942;9.256;2023-02-14T11:22:49;7.40;1.00
435;DHT22;204;48.942;9.256;2023-02-14T11:25:20;7.40;1.00
435;DHT22;204;48.942;9.256;2023-02-14T11:27:48;7.40;1.00
435;DHT22;204;48.942;9.256;2023-02-14T11:30:25;7.50;1.00
435;DHT22;204;48.942;9.256;2023-02-14T11:32:52;7.50;1.00
435;DHT22;204;48.942;9.256;2023-02-14T11:35:22;7.60;1.00
435;DHT22;204;48.942;9.256;2023-02-14T11:37:53;7.60;1.00
435;DHT22;204;48.942;9.256;2023-02-14T11:40:33;7.70;1.00
435;DHT22;204;48.942;9.256;2023-02-14T11:45:43;7.70;1.00
435;DHT22;204;48.942;9.256;2023-02-14T11:48:21;7.70;1.00
435;DHT22;204;48.942;9.256;2023-02-14T11:51:03;7.80;1.00
435;DHT22;204;48.942;9.256;2023-02-14T11:53:46;8.00;1.00
435;DHT22;204;48.942;9.256;2023-02-14T11:56:14;8.00;1.00
435;DHT22;204;48.942;9.256;2023-02-14T11:58:48;8.10;1.00
435;DHT22;204;48.942;9.256;2023-02-14T12:01:26;8.20;1.00
435;DHT22;204;48.942;9.256;2023-02-14T12:03:57;8.30;1.00
435;DHT22;204;48.942;9.256;2023-02-14T12:06:28;8.30;1.00
435;DHT22;204;48.942;9.256;2023-02-14T12:11:37;8.40;1.00
435;DHT22;204;48.942;9.256;2023-02-14T12:14:03;8.40;1.00
435;DHT22;204;48.942;9.256;2023-02-14T12:16:37;8.40;1.00
435;DHT22;204;48.942;9.256;2023-02-14T12:19:12;8.40;1.00
435;DHT22;204;48.942;9.256;2023-02-14T12:21:48;8.50;1.00
435;DHT22;204;48.942;9.256;2023-02-14T12:24:35;8.50;1.00
435;DHT22;204;48.942;9.256;2023-02-14T12:27:22;8.50;1.00
435;DHT22;204;48.942;9.256;2023-02-14T12:29:53;8.50;1.00
435;DHT22;204;48.942;9.256;2023-02-14T12:32:24;8.60;1.00
435;DHT22;204;48.942;9.256;2023-02-14T12:34:52;8.60;1.00
435;DHT22;204;48.942;9.256;2023-02-14T12:37:25;8.50;1.00
435;DHT22;204;48.942;9.256;2023-02-14T12:40:10;8.50;1.00
435;DHT22;204;48.942;9.256;2023-02-14T12:43:02;8.60;1.00
435;DHT22;204;48.942;9.256;2023-02-14T12:45:58;8.60;1.00
435;DHT22;204;48.942;9.256;2023-02-14T12:51:59;8.70;1.00
435;DHT22;204;48.942;9.256;2023-02-14T12:57:28;8.60;1.00
435;DHT22;204;48.942;9.256;2023-02-14T13:10:54;8.70;1.00
435;DHT22;204;48.942;9.256;2023-02-14T13:14:09;8.70;1.00
435;DHT22;204;48.942;9.256;2023-02-14T13:17:06;8.70;1.00
435;DHT22;204;48.942;9.256;2023-02-14T13:22:39;8.70;1.00
435;DHT22;204;48.942;9.256;2023-02-14T13:25:17;8.70;1.00
435;DHT22;204;48.942;9.256;2023-02-14T13:27:45;8.70;1.00
435;DHT22;204;48.942;9.256;2023-02-14T13:32:49;8.70;1.00
435;DHT22;204;48.942;9.256;2023-02-14T13:35:17;8.80;1.00
435;DHT22;204;48.942;9.256;2023-02-14T13:37:50;8.70;1.00
435;DHT22;204;48.942;9.256;2023-02-14T13:40:20;8.70;1.00
435;DHT22;204;48.942;9.256;2023-02-14T13:48:05;8.80;1.00
435;DHT22;204;48.942;9.256;2023-02-14T13:53:42;8.70;1.00
435;DHT22;204;48.942;9.256;2023-02-14T14:01:40;8.70;1.00
435;DHT22;204;48.942;9.256;2023-02-14T14:09:56;8.70;1.00
435;DHT22;204;48.942;9.256;2023-02-14T14:17:32;8.60;1.00
435;DHT22;204;48.942;9.256;2023-02-14T14:19:58;8.60;1.00
435;DHT22;204;48.942;9.256;2023-02-14T14:22:26;8.50;1.00
435;DHT22;204;48.942;9.256;2023-02-14T14:24:59;8.60;1.00
435;DHT22;204;48.942;9.256;2023-02-14T14:27:34;8.60;1.00
435;DHT22;204;48.942;9.256;2023-02-14T14:30:06;8.60;1.00
435;DHT22;204;48.942;9.256;2023-02-14T14:32:39;8.60;1.00
435;DHT22;204;48.942;9.256;2023-02-14T14:35:14;8.60;1.00
435;DHT22;204;48.942;9.256;2023-02-14T14:37:52;8.50;1.00
435;DHT22;204;48.942;9.256;2023-02-14T14:40:31;8.50;1.00
435;DHT22;204;48.942;9.256;2023-02-14T14:43:10;8.50;1.00
435;DHT22;204;48.942;9.256;2023-02-14T14:45:36;8.50;1.00
435;DHT22;204;48.942;9.256;2023-02-14T14:48:08;8.50;1.00
435;DHT22;204;48.942;9.256;2023-02-14T14:50:35;8.40;1.00
435;DHT22;204;48.942;9.256;2023-02-14T14:53:16;8.40;1.00
435;DHT22;204;48.942;9.256;2023-02-14T14:55:45;8.30;1.00
435;DHT22;204;48.942;9.256;2023-02-14T14:58:38;8.30;1.00
435;DHT22;204;48.942;9.256;2023-02-14T15:01:06;8.20;1.00
435;DHT22;204;48.942;9.256;2023-02-14T15:03:32;8.30;1.00
435;DHT22;204;48.942;9.256;2023-02-14T15:06:07;8.20;1.00
435;DHT22;204;48.942;9.256;2023-02-14T15:08:34;8.20;1.00
435;DHT22;204;48.942;9.256;2023-02-14T15:11:13;8.20;1.00
435;DHT22;204;48.942;9.256;2023-02-14T15:14:05;8.10;1.00
435;DHT22;204;48.942;9.256;2023-02-14T15:16:40;8.10;1.00
435;DHT22;204;48.942;9.256;2023-02-14T15:19:19;8.10;1.00
435;DHT22;204;48.942;9.256;2023-02-14T15:21:46;8.10;1.00
435;DHT22;204;48.942;9.256;2023-02-14T15:24:16;8.00;1.00
435;DHT22;204;48.942;9.256;2023-02-14T15:26:45;8.00;1.00
435;DHT22;204;48.942;9.256;2023-02-14T15:29:25;8.00;1.00
435;DHT22;204;48.942;9.256;2023-02-14T15:31:52;7.90;1.00
435;DHT22;204;48.942;9.256;2023-02-14T15:34:30;7.80;1.00
435;DHT22;204;48.942;9.256;2023-02-14T15:36:57;7.80;1.00
435;DHT22;204;48.942;9.256;2023-02-14T15:39:34;7.80;1.00
435;DHT22;204;48.942;9.256;2023-02-14T15:41:59;7.70;1.00
435;DHT22;204;48.942;9.256;2023-02-14T15:44:25;7.60;1.00
435;DHT22;204;48.942;9.256;2023-02-14T15:46:57;7.60;1.00
435;DHT22;204;48.942;9.256;2023-02-14T15:49:34;7.50;1.00
435;DHT22;204;48.942;9.256;2023-02-14T15:52:04;7.50;1.00
435;DHT22;204;48.942;9.256;2023-02-14T15:54:36;7.50;1.00
435;DHT22;204;48.942;9.256;2023-02-14T15:57:03;7.40;1.00
435;DHT22;204;48.942;9.256;2023-02-14T15:59:32;7.40;1.00
435;DHT22;204;48.942;9.256;2023-02-14T16:02:01;7.30;1.00
435;DHT22;204;48.942;9.256;2023-02-14T16:04:33;7.30;1.00
435;DHT22;204;48.942;9.256;2023-02-14T16:07:25;7.20;1.00
435;DHT22;204;48.942;9.256;2023-02-14T16:13:18;7.00;1.00
435;DHT22;204;48.942;9.256;2023-02-14T16:16:02;7.00;1.00
435;DHT22;204;48.942;9.256;2023-02-14T16:18:43;6.90;1.00
435;DHT22;204;48.942;9.256;2023-02-14T16:23:43;6.80;1.00
435;DHT22;204;48.942;9.256;2023-02-14T16:26:09;6.70;1.00
435;DHT22;204;48.942;9.256;2023-02-14T16:28:35;6.60;1.00
435;DHT22;204;48.942;9.256;2023-02-14T16:31:02;6.60;1.00
435;DHT22;204;48.942;9.256;2023-02-14T16:33:33;6.50;1.00
435;DHT22;204;48.942;9.256;2023-02-14T16:36:37;6.50;1.00
435;DHT22;204;48.942;9.256;2023-02-14T16:38:56;6.40;1.00
435;DHT22;204;48.942;9.256;2023-02-14T16:41:25;6.30;1.00
435;DHT22;204;48.942;9.256;2023-02-14T16:43:52;6.30;1.00
435;DHT22;204;48.942;9.256;2023-02-14T16:46:21;6.20;1.00
435;DHT22;204;48.942;9.256;2023-02-14T16:48:47;6.10;1.00
435;DHT22;204;48.942;9.256;2023-02-14T16:51:17;6.00;1.00
435;DHT22;204;48.942;9.256;2023-02-14T16:53:43;6.00;1.00
435;DHT22;204;48.942;9.256;2023-02-14T16:56:22;5.90;1.00
435;DHT22;204;48.942;9.256;2023-02-14T16:58:50;5.80;1.00
435;DHT22;204;48.942;9.256;2023-02-14T17:01:15;5.70;1.00
435;DHT22;204;48.942;9.256;2023-02-14T17:03:41;5.70;1.00
435;DHT22;204;48.942;9.256;2023-02-14T17:06:10;5.60;1.00
435;DHT22;204;48.942;9.256;2023-02-14T17:08:38;5.50;1.00
435;DHT22;204;48.942;9.256;2023-02-14T17:11:05;5.40;1.00
435;DHT22;204;48.942;9.256;2023-02-14T17:13:32;5.40;1.00
435;DHT22;204;48.942;9.256;2023-02-14T17:15:59;5.30;1.00
435;DHT22;204;48.942;9.256;2023-02-14T17:18:27;5.20;1.00
435;DHT22;204;48.942;9.256;2023-02-14T17:20:54;5.10;1.00
435;DHT22;204;48.942;9.256;2023-02-14T17:23:20;5.10;1.00
435;DHT22;204;48.942;9.256;2023-02-14T17:25:47;5.00;1.00
435;DHT22;204;48.942;9.256;2023-02-14T17:28:13;5.00;1.00
435;DHT22;204;48.942;9.256;2023-02-14T17:30:39;5.00;1.00
435;DHT22;204;48.942;9.256;2023-02-14T17:33:04;4.90;1.00
435;DHT22;204;48.942;9.256;2023-02-14T17:35:33;4.90;1.00
435;DHT22;204;48.942;9.256;2023-02-14T17:37:59;4.80;1.00
435;DHT22;204;48.942;9.256;2023-02-14T17:40:26;4.80;1.00
435;DHT22;204;48.942;9.256;2023-02-14T17:42:52;4.70;1.00
435;DHT22;204;48.942;9.256;2023-02-14T17:45:18;4.70;1.00
435;DHT22;204;48.942;9.256;2023-02-14T17:47:43;4.70;1.00
435;DHT22;204;48.942;9.256;2023-02-14T17:50:10;4.60;1.00
435;DHT22;204;48.942;9.256;2023-02-14T17:52:38;4.60;1.00
435;DHT22;204;48.942;9.256;2023-02-14T17:55:05;4.50;1.00
435;DHT22;204;48.942;9.256;2023-02-14T17:57:31;4.50;1.00
435;DHT22;204;48.942;9.256;2023-02-14T17:59:57;4.40;1.00
435;DHT22;204;48.942;9.256;2023-02-14T18:02:23;4.30;1.00
435;DHT22;204;48.942;9.256;2023-02-14T18:04:49;4.30;1.00
435;DHT22;204;48.942;9.256;2023-02-14T18:07:15;4.20;1.00
435;DHT22;204;48.942;9.256;2023-02-14T18:09:41;4.20;1.00
435;DHT22;204;48.942;9.256;2023-02-14T18:12:07;4.10;1.00
435;DHT22;204;48.942;9.256;2023-02-14T18:14:34;4.10;1.00
435;DHT22;204;48.942;9.256;2023-02-14T18:17:00;4.00;1.00
435;DHT22;204;48.942;9.256;2023-02-14T18:19:26;4.00;1.00
435;DHT22;204;48.942;9.256;2023-02-14T18:21:51;4.00;1.00
435;DHT22;204;48.942;9.256;2023-02-14T18:24:18;3.90;1.00
435;DHT22;204;48.942;9.256;2023-02-14T18:26:44;3.90;1.00
435;DHT22;204;48.942;9.256;2023-02-14T18:29:11;3.80;1.00
435;DHT22;204;48.942;9.256;2023-02-14T18:31:38;3.80;1.00
435;DHT22;204;48.942;9.256;2023-02-14T18:34:04;3.70;1.00
435;DHT22;204;48.942;9.256;2023-02-14T18:36:31;3.70;1.00
435;DHT22;204;48.942;9.256;2023-02-14T18:38:57;3.60;1.00
435;DHT22;204;48.942;9.256;2023-02-14T18:41:25;3.60;1.00
435;DHT22;204;48.942;9.256;2023-02-14T18:43:51;3.50;1.00
435;DHT22;204;48.942;9.256;2023-02-14T18:46:23;3.50;1.00
435;DHT22;204;48.942;9.256;2023-02-14T18:48:49;3.40;1.00
435;DHT22;204;48.942;9.256;2023-02-14T18:51:21;3.40;1.00
435;DHT22;204;48.942;9.256;2023-02-14T18:53:48;3.30;1.00
435;DHT22;204;48.942;9.256;2023-02-14T18:56:22;3.30;1.00
435;DHT22;204;48.942;9.256;2023-02-14T18:58:49;3.20;1.00
435;DHT22;204;48.942;9.256;2023-02-14T19:01:20;3.10;1.00
435;DHT22;204;48.942;9.256;2023-02-14T19:03:46;3.00;1.00
435;DHT22;204;48.942;9.256;2023-02-14T19:06:14;3.00;1.00
435;DHT22;204;48.942;9.256;2023-02-14T19:08:40;3.00;1.00
435;DHT22;204;48.942;9.256;2023-02-14T19:11:13;3.00;1.00
435;DHT22;204;48.942;9.256;2023-02-14T19:13:43;2.90;1.00
435;DHT22;204;48.942;9.256;2023-02-14T19:16:15;2.90;1.00
435;DHT22;204;48.942;9.256;2023-02-14T19:18:41;2.80;1.00
435;DHT22;204;48.942;9.256;2023-02-14T19:23:37;2.80;1.00
435;DHT22;204;48.942;9.256;2023-02-14T19:26:14;2.70;1.00
435;DHT22;204;48.942;9.256;2023-02-14T19:28:40;2.70;1.00
435;DHT22;204;48.942;9.256;2023-02-14T19:31:06;2.60;1.00
435;DHT22;204;48.942;9.256;2023-02-14T19:33:38;2.60;1.00